Time;durP1;ratioP1;P1;durP2;ratioP2;P2;SDS_P1;SDS_P2;PMS_P1;PMS_P2;Temp;Humidity;BMP_temperature;BMP_pressure;BME280_temperature;BME280_humidity;BME280_pressure;Samples;Min_cycle;Max_cycle;Signal;HPM_P1;HPM_P2
2023/04/12 00:02:21;;;;;;;30.77;18.50;;;;;;;;;;4972055;28;20114;-76
2023/04/12 00:04:54;;;;;;;30.23;16.30;;;;;;;;;;4961988;28;20542;-78
2023/04/12 00:07:26;;;;;;;26.42;17.13;;;;;;;;;;4953875;28;20062;-77
2023/04/12 00:09:51;;;;;;;26.77;16.88;;;;;;;;;;4954103;29;20031;-79
2023/04/12 00:12:18;;;;;;;28.40;17.00;;;;;;;;;;4952533;28;20046;-79
2023/04/12 00:14:47;;;;;;;27.27;16.90;;;;;;;;;;4984787;28;20035;-77
2023/04/12 00:17:14;;;;;;;24.40;17.23;;;;;;;;;;4972463;28;20397;-79
2023/04/12 00:19:43;;;;;;;30.20;16.00;;;;;;;;;;4964081;28;20027;-80
2023/04/12 00:22:13;;;;;;;26.55;16.45;;;;;;;;;;4971071;28;20054;-78
2023/04/12 00:24:40;;;;;;;25.65;15.50;;;;;;;;;;4956314;28;20038;-78
2023/04/12 00:27:07;;;;;;;26.45;16.13;;;;;;;;;;5002200;28;20428;-78
2023/04/12 00:29:35;;;;;;;24.67;15.93;;;;;;;;;;4973295;28;20030;-77
2023/04/12 00:32:05;;;;;;;30.25;17.00;;;;;;;;;;4972783;28;20492;-79
2023/04/12 00:34:34;;;;;;;23.90;15.38;;;;;;;;;;4965324;28;20074;-77
2023/04/12 00:37:02;;;;;;;23.55;15.52;;;;;;;;;;4969123;28;20031;-78
2023/04/12 00:39:38;;;;;;;20.23;13.85;;;;;;;;;;4974264;28;20370;-78
2023/04/12 00:42:06;;;;;;;22.00;14.68;;;;;;;;;;4972956;28;20082;-78
2023/04/12 00:44:32;;;;;;;21.77;14.52;;;;;;;;;;4973089;28;20022;-78
2023/04/12 00:46:59;;;;;;;22.15;14.15;;;;;;;;;;4967964;28;20039;-78
2023/04/12 00:49:32;;;;;;;25.35;14.48;;;;;;;;;;4968283;28;20101;-79
2023/04/12 00:52:03;;;;;;;24.27;13.63;;;;;;;;;;4967827;28;20104;-80
2023/04/12 00:54:32;;;;;;;19.92;12.77;;;;;;;;;;4973227;28;20038;-79
2023/04/12 00:57:04;;;;;;;39.80;17.20;;;;;;;;;;4991692;28;20441;-79
2023/04/12 00:59:30;;;;;;;23.08;14.68;;;;;;;;;;4954279;28;20432;-79
2023/04/12 01:02:00;;;;;;;24.83;15.00;;;;;;;;;;4999028;28;20038;-78
2023/04/12 01:04:29;;;;;;;20.88;13.48;;;;;;;;;;4997020;28;20031;-78
2023/04/12 01:07:02;;;;;;;;;;;;;;;;;;4968296;28;20077;-79
2023/04/12 01:09:43;;;;;;;19.73;12.55;;;;;;;;;;4972254;28;20446;-78
2023/04/12 01:12:18;;;;;;;21.35;13.90;;;;;;;;;;5007500;28;20125;-79
2023/04/12 01:15:10;;;;;;;23.80;14.55;;;;;;;;;;4975574;28;20062;-77
2023/04/12 01:17:51;;;;;;;24.75;14.07;;;;;;;;;;4968513;28;20032;-80
2023/04/12 01:20:22;;;;;;;19.48;12.75;;;;;;;;;;4951642;28;20085;-78
2023/04/12 01:23:30;;;;;;;17.45;11.13;;;;;;;;;;5007708;28;20030;-78
2023/04/12 01:26:44;;;;;;;21.38;14.25;;;;;;;;;;4974015;28;20039;-78
2023/04/12 01:29:18;;;;;;;19.90;13.32;;;;;;;;;;4970645;28;20035;-79
2023/04/12 01:32:08;;;;;;;17.92;11.93;;;;;;;;;;4968264;28;20035;-79
2023/04/12 01:34:45;;;;;;;16.75;10.68;;;;;;;;;;4998739;28;20032;-80
2023/04/12 01:37:15;;;;;;;17.13;11.90;;;;;;;;;;4964757;28;20512;-78
2023/04/12 01:39:41;;;;;;;21.42;12.13;;;;;;;;;;4955362;29;20516;-79
2023/04/12 01:42:06;;;;;;;19.20;11.85;;;;;;;;;;4984930;28;20031;-77
2023/04/12 01:44:33;;;;;;;15.70;10.43;;;;;;;;;;4975969;28;20046;-79
2023/04/12 01:46:59;;;;;;;15.25;9.05;;;;;;;;;;5006306;28;20084;-79
2023/04/12 01:49:35;;;;;;;15.52;10.95;;;;;;;;;;4968683;28;20031;-77
2023/04/12 01:52:13;;;;;;;14.30;9.50;;;;;;;;;;4969102;28;20031;-79
2023/04/12 01:54:43;;;;;;;14.73;9.93;;;;;;;;;;5006918;28;20034;-79
2023/04/12 01:57:10;;;;;;;16.88;10.00;;;;;;;;;;4958020;28;20035;-79
2023/04/12 01:59:44;;;;;;;13.70;9.45;;;;;;;;;;4935806;29;20468;-79
2023/04/12 02:02:11;;;;;;;14.57;9.18;;;;;;;;;;4961697;28;20125;-79
2023/04/12 02:04:38;;;;;;;14.40;9.50;;;;;;;;;;4966876;28;20073;-79
2023/04/12 02:07:04;;;;;;;14.63;9.70;;;;;;;;;;4955793;28;20039;-77
2023/04/12 02:09:38;;;;;;;16.08;9.32;;;;;;;;;;4965267;28;20508;-77
2023/04/12 02:12:06;;;;;;;14.02;8.85;;;;;;;;;;4975233;28;20058;-77
2023/04/12 02:14:31;;;;;;;15.63;9.23;;;;;;;;;;4990257;28;20029;-77
2023/04/12 02:16:58;;;;;;;14.07;9.23;;;;;;;;;;5006158;28;20034;-76
2023/04/12 02:19:25;;;;;;;14.98;8.82;;;;;;;;;;4999855;28;20023;-78
2023/04/12 02:21:52;;;;;;;12.40;8.23;;;;;;;;;;4987452;28;20031;-77
2023/04/12 02:24:18;;;;;;;14.55;7.70;;;;;;;;;;4964166;28;20018;-76
2023/04/12 02:26:45;;;;;;;16.10;8.30;;;;;;;;;;4989914;28;20112;-78
2023/04/12 02:29:12;;;;;;;12.18;7.82;;;;;;;;;;4974505;28;20022;-77
2023/04/12 02:31:39;;;;;;;11.80;7.28;;;;;;;;;;4952901;28;20477;-77
2023/04/12 02:34:08;;;;;;;15.70;8.02;;;;;;;;;;4980361;28;20019;-78
2023/04/12 02:36:36;;;;;;;14.73;8.30;;;;;;;;;;4946672;28;20068;-78
2023/04/12 02:39:03;;;;;;;17.33;8.05;;;;;;;;;;4956100;28;20038;-77
2023/04/12 02:41:32;;;;;;;13.52;7.70;;;;;;;;;;4954821;28;20515;-79
2023/04/12 02:43:58;;;;;;;12.02;7.85;;;;;;;;;;4955568;28;20038;-78
2023/04/12 02:46:26;;;;;;;14.55;7.43;;;;;;;;;;4950930;28;20085;-78
2023/04/12 02:48:56;;;;;;;14.10;7.55;;;;;;;;;;4953816;29;20091;-77
2023/04/12 02:51:31;;;;;;;11.50;7.68;;;;;;;;;;4950971;29;20036;-77
2023/04/12 02:53:56;;;;;;;12.10;7.75;;;;;;;;;;4954918;29;20547;-79
2023/04/12 02:56:28;;;;;;;13.30;8.43;;;;;;;;;;4950686;28;20031;-79
2023/04/12 02:59:05;;;;;;;17.52;9.27;;;;;;;;;;4954039;29;20624;-78
2023/04/12 03:01:45;;;;;;;22.42;9.23;;;;;;;;;;4950706;29;20066;-78
2023/04/12 03:04:29;;;;;;;17.52;8.95;;;;;;;;;;4950856;29;20123;-79
2023/04/12 03:06:57;;;;;;;14.98;8.70;;;;;;;;;;4985821;28;20031;-78
2023/04/12 03:09:41;;;;;;;14.43;8.63;;;;;;;;;;4951697;29;20032;-78
2023/04/12 03:12:07;;;;;;;13.20;8.30;;;;;;;;;;4986030;28;20070;-78
2023/04/12 03:14:40;;;;;;;14.88;8.68;;;;;;;;;;4952586;28;20031;-77
2023/04/12 03:17:08;;;;;;;12.35;8.50;;;;;;;;;;4951730;28;20110;-78
2023/04/12 03:19:36;;;;;;;13.48;8.85;;;;;;;;;;4982586;28;20035;-78
2023/04/12 03:22:05;;;;;;;15.68;9.43;;;;;;;;;;4971667;28;20030;-77
2023/04/12 03:24:36;;;;;;;14.43;9.02;;;;;;;;;;4982425;28;20027;-78
2023/04/12 03:27:04;;;;;;;13.38;9.38;;;;;;;;;;4955477;28;20043;-77
2023/04/12 03:29:33;;;;;;;33.88;11.70;;;;;;;;;;4953436;28;20037;-77
2023/04/12 03:31:59;;;;;;;18.55;9.70;;;;;;;;;;4950835;29;20035;-77
2023/04/12 03:34:30;;;;;;;14.82;9.85;;;;;;;;;;4950020;28;20023;-77
2023/04/12 03:37:02;;;;;;;16.85;9.95;;;;;;;;;;4953263;28;20050;-77
2023/04/12 03:39:37;;;;;;;16.02;10.13;;;;;;;;;;4949189;28;20044;-78
2023/04/12 03:42:06;;;;;;;17.60;10.25;;;;;;;;;;4953209;29;20082;-78
2023/04/12 03:44:32;;;;;;;19.85;10.27;;;;;;;;;;4949871;29;20115;-78
2023/04/12 03:47:02;;;;;;;15.50;9.93;;;;;;;;;;4977477;28;20027;-78
2023/04/12 03:49:34;;;;;;;15.25;10.25;;;;;;;;;;4953219;28;20027;-77
2023/04/12 03:52:01;;;;;;;17.27;10.80;;;;;;;;;;4949445;28;20047;-78
2023/04/12 03:54:27;;;;;;;18.23;9.95;;;;;;;;;;4934993;29;20027;-76
2023/04/12 03:56:57;;;;;;;30.88;12.32;;;;;;;;;;4952050;29;20103;-78
2023/04/12 03:59:31;;;;;;;29.02;11.60;;;;;;;;;;4949611;29;20039;-77
2023/04/12 04:02:00;;;;;;;32.90;12.05;;;;;;;;;;4952759;29;20094;-78
2023/04/12 04:04:28;;;;;;;22.88;9.82;;;;;;;;;;4949517;29;20106;-77
2023/04/12 04:06:58;;;;;;;19.08;11.10;;;;;;;;;;4984314;28;20101;-78
2023/04/12 04:09:43;;;;;;;28.13;10.88;;;;;;;;;;4952664;29;20110;-78
2023/04/12 04:12:10;;;;;;;18.15;10.77;;;;;;;;;;4968560;28;20117;-79
2023/04/12 04:14:40;;;;;;;20.02;9.77;;;;;;;;;;4949896;28;20110;-77
2023/04/12 04:17:08;;;;;;;22.00;11.20;;;;;;;;;;4932717;29;20046;-78
2023/04/12 04:19:34;;;;;;;23.20;12.13;;;;;;;;;;4950367;29;20031;-77
2023/04/12 04:22:03;;;;;;;21.25;10.18;;;;;;;;;;4949289;28;20039;-76
2023/04/12 04:24:30;;;;;;;22.40;10.63;;;;;;;;;;4933103;29;20031;-78
2023/04/12 04:26:59;;;;;;;26.23;9.50;;;;;;;;;;4952194;28;20030;-78
2023/04/12 04:29:27;;;;;;;17.17;9.20;;;;;;;;;;4952289;28;20035;-78
2023/04/12 04:31:54;;;;;;;14.70;9.23;;;;;;;;;;4952585;28;20031;-77
2023/04/12 04:34:22;;;;;;;16.77;9.32;;;;;;;;;;4952413;28;20031;-79
2023/04/12 04:36:50;;;;;;;17.85;10.30;;;;;;;;;;4967161;28;20062;-78
2023/04/12 04:39:22;;;;;;;20.45;9.30;;;;;;;;;;4948116;29;20039;-79
2023/04/12 04:41:53;;;;;;;24.98;11.18;;;;;;;;;;4951743;28;20035;-78
2023/04/12 04:44:39;;;;;;;17.73;10.85;;;;;;;;;;4950787;28;20067;-78
2023/04/12 04:47:08;;;;;;;18.98;9.80;;;;;;;;;;4952341;28;20065;-78
2023/04/12 04:49:35;;;;;;;14.07;8.88;;;;;;;;;;4956943;29;20027;-78
2023/04/12 04:52:07;;;;;;;;;;;;;;;;;;4960645;28;20039;-79
2023/04/12 04:54:33;;;;;;;25.73;10.23;;;;;;;;;;4985683;28;19921;-79
2023/04/12 04:57:01;;;;;;;21.77;9.27;;;;;;;;;;4970289;28;20037;-78
2023/04/12 04:59:27;;;;;;;20.30;9.52;;;;;;;;;;4986832;28;20334;-79
2023/04/12 05:02:06;;;;;;;22.80;8.43;;;;;;;;;;4954171;28;20502;-79
2023/04/12 05:04:32;;;;;;;15.55;8.77;;;;;;;;;;4945198;29;20039;-79
2023/04/12 05:06:57;;;;;;;13.23;8.25;;;;;;;;;;4962925;28;20050;-80
2023/04/12 05:09:25;;;;;;;11.38;7.65;;;;;;;;;;4969984;28;20050;-80
2023/04/12 05:11:56;;;;;;;18.95;8.40;;;;;;;;;;4954809;28;20501;-81
2023/04/12 05:14:24;;;;;;;12.90;9.10;;;;;;;;;;4968758;28;20090;-81
2023/04/12 05:16:50;;;;;;;13.05;8.95;;;;;;;;;;4953582;28;20024;-81
2023/04/12 05:19:16;;;;;;;14.25;8.70;;;;;;;;;;4955875;28;20035;-82
2023/04/12 05:21:42;;;;;;;14.32;9.73;;;;;;;;;;4970026;28;20026;-81
2023/04/12 05:24:09;;;;;;;13.65;8.18;;;;;;;;;;4955228;28;20155;-82
2023/04/12 05:26:37;;;;;;;32.13;9.50;;;;;;;;;;4970101;28;20028;-82
2023/04/12 05:29:09;;;;;;;18.67;8.77;;;;;;;;;;4969196;28;20039;-82
2023/04/12 05:31:35;;;;;;;16.52;8.20;;;;;;;;;;4954184;28;20045;-82
2023/04/12 05:34:05;;;;;;;10.85;8.40;;;;;;;;;;4953974;29;20031;-81
2023/04/12 05:36:37;;;;;;;12.43;8.20;;;;;;;;;;4986283;28;20039;-81
2023/04/12 05:39:03;;;;;;;16.40;8.77;;;;;;;;;;4986411;28;20130;-82
2023/04/12 05:41:31;;;;;;;16.85;8.00;;;;;;;;;;4954078;29;20489;-83
2023/04/12 05:43:57;;;;;;;19.85;9.35;;;;;;;;;;4985862;28;20051;-83
2023/04/12 05:46:23;;;;;;;18.02;10.00;;;;;;;;;;4985864;28;20030;-82
2023/04/12 05:48:50;;;;;;;16.25;9.30;;;;;;;;;;4953591;28;20043;-82
2023/04/12 05:51:17;;;;;;;17.25;10.73;;;;;;;;;;4985286;28;20031;-81
2023/04/12 05:53:45;;;;;;;14.38;10.00;;;;;;;;;;4953393;28;20070;-82
2023/04/12 05:56:12;;;;;;;17.63;10.93;;;;;;;;;;4984965;28;20027;-80
2023/04/12 05:58:38;;;;;;;26.38;12.07;;;;;;;;;;4952978;28;20126;-80
2023/04/12 06:01:05;;;;;;;20.60;10.65;;;;;;;;;;4953259;28;20174;-80
2023/04/12 06:03:32;;;;;;;17.48;10.60;;;;;;;;;;4969145;28;20047;-80
2023/04/12 06:06:07;;;;;;;27.40;12.75;;;;;;;;;;4983305;28;20031;-79
2023/04/12 06:08:33;;;;;;;22.27;10.93;;;;;;;;;;4955248;28;20133;-79
2023/04/12 06:11:01;;;;;;;20.55;9.93;;;;;;;;;;4954004;28;20107;-81
2023/04/12 06:13:28;;;;;;;25.52;10.43;;;;;;;;;;4907111;28;1848164;-81
2023/04/12 06:15:54;;;;;;;24.30;9.93;;;;;;;;;;4970286;28;20039;-80
2023/04/12 06:18:22;;;;;;;18.30;9.90;;;;;;;;;;4986571;28;20053;-81
2023/04/12 06:20:48;;;;;;;16.77;9.32;;;;;;;;;;4970662;28;20490;-81
2023/04/12 06:23:14;;;;;;;14.95;9.98;;;;;;;;;;4958736;28;20083;-81
2023/04/12 06:25:41;;;;;;;13.60;7.82;;;;;;;;;;4987827;28;20030;-80
2023/04/12 06:28:08;;;;;;;14.25;8.48;;;;;;;;;;4986905;28;20035;-80
2023/04/12 06:30:41;;;;;;;17.08;9.05;;;;;;;;;;4955767;28;20023;-79
2023/04/12 06:33:07;;;;;;;18.20;9.93;;;;;;;;;;4953189;28;20031;-78
2023/04/12 06:35:35;;;;;;;21.42;9.73;;;;;;;;;;4952931;28;20118;-79
2023/04/12 06:38:02;;;;;;;16.98;9.35;;;;;;;;;;4987646;28;20042;-81
2023/04/12 06:40:27;;;;;;;16.45;8.93;;;;;;;;;;4956073;28;20134;-80
2023/04/12 06:42:55;;;;;;;20.27;10.10;;;;;;;;;;4955595;28;20031;-83
2023/04/12 06:45:23;;;;;;;19.40;10.07;;;;;;;;;;4954128;28;20042;-79
2023/04/12 06:47:54;;;;;;;20.17;11.30;;;;;;;;;;4953872;28;20118;-81
2023/04/12 06:50:24;;;;;;;21.65;10.80;;;;;;;;;;4955860;28;20034;-79
2023/04/12 06:52:50;;;;;;;33.45;15.27;;;;;;;;;;4954906;28;20046;-78
2023/04/12 06:55:17;;;;;;;20.73;9.45;;;;;;;;;;4954567;28;20035;-79
2023/04/12 06:57:46;;;;;;;14.02;9.55;;;;;;;;;;4955049;28;20493;-79
2023/04/12 07:00:12;;;;;;;19.63;9.65;;;;;;;;;;4970722;28;20034;-79
2023/04/12 07:02:38;;;;;;;14.50;8.63;;;;;;;;;;4986409;28;20039;-79
2023/04/12 07:05:05;;;;;;;12.18;8.40;;;;;;;;;;4953995;28;20554;-79
2023/04/12 07:07:32;;;;;;;12.88;9.27;;;;;;;;;;4953604;28;20035;-78
2023/04/12 07:09:59;;;;;;;13.82;9.00;;;;;;;;;;4955041;28;20563;-78
2023/04/12 07:12:25;;;;;;;15.93;9.23;;;;;;;;;;4953967;29;20085;-79
2023/04/12 07:14:51;;;;;;;11.55;7.85;;;;;;;;;;4986879;28;20035;-80
2023/04/12 07:17:17;;;;;;;13.27;8.30;;;;;;;;;;4954681;28;20402;-79
2023/04/12 07:19:44;;;;;;;11.80;8.20;;;;;;;;;;4954870;28;20065;-80
2023/04/12 07:22:10;;;;;;;13.45;7.88;;;;;;;;;;4954318;29;20049;-80
2023/04/12 07:24:36;;;;;;;11.15;6.95;;;;;;;;;;4954387;28;20033;-77
2023/04/12 07:27:03;;;;;;;10.00;6.53;;;;;;;;;;4984720;28;20043;-81
2023/04/12 07:29:28;;;;;;;13.43;6.75;;;;;;;;;;4954236;28;20035;-78
2023/04/12 07:31:54;;;;;;;14.70;7.18;;;;;;;;;;4953599;28;20050;-80
2023/04/12 07:34:20;;;;;;;12.02;7.05;;;;;;;;;;4954068;29;20106;-79
2023/04/12 07:36:45;;;;;;;13.32;7.05;;;;;;;;;;4954284;28;20035;-80
2023/04/12 07:39:11;;;;;;;11.10;6.53;;;;;;;;;;4954112;28;20084;-78
2023/04/12 07:41:37;;;;;;;8.98;6.00;;;;;;;;;;4954562;28;20035;-79
2023/04/12 07:44:04;;;;;;;10.00;6.97;;;;;;;;;;4953170;28;20031;-81
2023/04/12 07:46:30;;;;;;;12.73;7.07;;;;;;;;;;4985510;28;20043;-83
2023/04/12 07:48:56;;;;;;;12.32;8.20;;;;;;;;;;4956024;28;20081;-85
2023/04/12 07:51:22;;;;;;;10.35;7.10;;;;;;;;;;4985821;28;20125;-84
2023/04/12 07:53:51;;;;;;;11.35;6.97;;;;;;;;;;4956379;28;20037;-81
2023/04/12 07:56:17;;;;;;;10.38;6.40;;;;;;;;;;4953805;29;20050;-84
2023/04/12 07:58:47;;;;;;;10.27;6.53;;;;;;;;;;4954298;28;20023;-83
2023/04/12 08:01:14;;;;;;;13.68;7.03;;;;;;;;;;4954969;28;20042;-81
2023/04/12 08:03:40;;;;;;;13.55;7.35;;;;;;;;;;4985063;28;20065;-82
2023/04/12 08:06:08;;;;;;;11.38;6.72;;;;;;;;;;4968664;28;20039;-82
2023/04/12 08:08:35;;;;;;;11.35;6.40;;;;;;;;;;4954054;28;20038;-83
2023/04/12 08:11:05;;;;;;;9.40;7.13;;;;;;;;;;4954135;28;20513;-81
2023/04/12 08:13:32;;;;;;;9.45;6.05;;;;;;;;;;4953747;28;20156;-82
2023/04/12 08:15:57;;;;;;;9.73;5.93;;;;;;;;;;4954342;28;20046;-84
2023/04/12 08:18:23;;;;;;;10.48;6.43;;;;;;;;;;4954243;28;20391;-84
2023/04/12 08:20:49;;;;;;;10.80;5.90;;;;;;;;;;4954717;28;20059;-82
2023/04/12 08:23:17;;;;;;;16.80;7.00;;;;;;;;;;4956915;28;20031;-82
2023/04/12 08:25:43;;;;;;;13.50;6.10;;;;;;;;;;4955044;28;20121;-84
2023/04/12 08:28:08;;;;;;;9.52;5.90;;;;;;;;;;4985408;28;20119;-84
2023/04/12 08:30:36;;;;;;;8.60;5.80;;;;;;;;;;4955160;28;20050;-81
2023/04/12 08:33:01;;;;;;;8.68;5.60;;;;;;;;;;4984223;28;20078;-81
2023/04/12 08:35:27;;;;;;;10.10;5.50;;;;;;;;;;4953361;28;20039;-82
2023/04/12 08:37:53;;;;;;;9.65;6.30;;;;;;;;;;4981351;28;20028;-82
2023/04/12 08:40:20;;;;;;;7.93;5.47;;;;;;;;;;4967157;28;20039;-82
2023/04/12 08:42:46;;;;;;;7.55;5.50;;;;;;;;;;4953968;28;20035;-82
2023/04/12 08:45:13;;;;;;;10.75;7.40;;;;;;;;;;4954258;28;20039;-81
2023/04/12 08:47:41;;;;;;;6.70;4.82;;;;;;;;;;4983959;28;20178;-83
2023/04/12 08:50:12;;;;;;;8.82;5.47;;;;;;;;;;4952903;28;20051;-83
2023/04/12 08:52:40;;;;;;;10.85;6.68;;;;;;;;;;4984551;28;20046;-82
2023/04/12 08:55:08;;;;;;;10.65;5.93;;;;;;;;;;4955799;28;20027;-82
2023/04/12 08:57:38;;;;;;;9.98;6.20;;;;;;;;;;4953769;28;20057;-82
2023/04/12 09:00:07;;;;;;;7.82;5.80;;;;;;;;;;4955753;28;20441;-81
2023/04/12 09:02:37;;;;;;;6.72;5.30;;;;;;;;;;4953858;28;20074;-82
2023/04/12 09:05:03;;;;;;;7.53;5.32;;;;;;;;;;4951596;28;20031;-83
2023/04/12 09:07:30;;;;;;;9.68;5.70;;;;;;;;;;4985704;28;20039;-76
2023/04/12 09:09:59;;;;;;;7.18;5.18;;;;;;;;;;4985545;28;20082;-82
2023/04/12 09:12:25;;;;;;;6.50;5.07;;;;;;;;;;4954172;28;20035;-82
2023/04/12 09:15:12;;;;;;;8.25;4.65;;;;;;;;;;4953810;28;20536;-84
2023/04/12 09:17:39;;;;;;;8.30;4.95;;;;;;;;;;4985791;28;20118;-83
2023/04/12 09:20:24;;;;;;;7.45;4.85;;;;;;;;;;4952771;28;20034;-82
2023/04/12 09:22:54;;;;;;;6.32;4.55;;;;;;;;;;4954677;29;20059;-83
2023/04/12 09:25:44;;;;;;;8.27;4.95;;;;;;;;;;4983200;28;20405;-84
2023/04/12 09:28:20;;;;;;;5.63;4.07;;;;;;;;;;4973619;28;20055;-82
2023/04/12 09:30:50;;;;;;;8.73;6.40;;;;;;;;;;4971996;28;20032;-81
2023/04/12 09:33:23;;;;;;;9.85;6.03;;;;;;;;;;4956766;29;20042;-82
2023/04/12 09:35:49;;;;;;;7.88;4.72;;;;;;;;;;4971621;28;20043;-81
2023/04/12 09:38:15;;;;;;;7.45;5.00;;;;;;;;;;4957186;28;20114;-82
2023/04/12 09:40:41;;;;;;;8.18;5.30;;;;;;;;;;4957366;28;20039;-81
2023/04/12 09:43:09;;;;;;;7.93;5.30;;;;;;;;;;4956463;28;20045;-82
2023/04/12 09:45:39;;;;;;;8.10;5.10;;;;;;;;;;4960183;28;20043;-82
2023/04/12 09:48:05;;;;;;;8.77;4.18;;;;;;;;;;4987771;28;20055;-82
2023/04/12 09:50:32;;;;;;;10.20;4.75;;;;;;;;;;4957480;28;20054;-82
2023/04/12 09:53:00;;;;;;;8.38;4.80;;;;;;;;;;4956929;28;20570;-81
2023/04/12 09:55:30;;;;;;;6.00;4.18;;;;;;;;;;4979937;28;20405;-82
2023/04/12 09:58:02;;;;;;;5.97;4.35;;;;;;;;;;4956447;28;20442;-81
2023/04/12 10:00:32;;;;;;;8.00;4.93;;;;;;;;;;4958382;28;20126;-83
2023/04/12 10:03:01;;;;;;;9.55;4.63;;;;;;;;;;4988661;28;20122;-86
2023/04/12 10:05:27;;;;;;;8.90;4.97;;;;;;;;;;4958092;28;20036;-83
2023/04/12 10:07:53;;;;;;;6.10;4.28;;;;;;;;;;4956662;28;20493;-85
2023/04/12 10:10:20;;;;;;;6.88;4.50;;;;;;;;;;4957596;28;20059;-83
2023/04/12 10:12:47;;;;;;;9.00;4.65;;;;;;;;;;4956799;28;20043;-85
2023/04/12 10:15:16;;;;;;;11.13;5.55;;;;;;;;;;4955691;28;20120;-79
2023/04/12 10:17:59;;;;;;;6.45;4.13;;;;;;;;;;4987276;28;20485;-82
2023/04/12 10:20:25;;;;;;;6.50;4.50;;;;;;;;;;4956061;28;20031;-85
2023/04/12 10:22:52;;;;;;;6.82;4.50;;;;;;;;;;4960370;28;20046;-84
2023/04/12 10:25:24;;;;;;;6.50;4.28;;;;;;;;;;4961240;28;20038;-84
2023/04/12 10:27:49;;;;;;;6.93;3.85;;;;;;;;;;4984604;28;20039;-83
2023/04/12 10:30:24;;;;;;;7.05;4.18;;;;;;;;;;4970996;28;20384;-82
2023/04/12 10:33:15;;;;;;;8.15;4.93;;;;;;;;;;4956505;28;20035;-82
2023/04/12 10:35:59;;;;;;;5.10;4.07;;;;;;;;;;4949243;28;20074;-84
2023/04/12 10:38:30;;;;;;;6.95;3.88;;;;;;;;;;4956461;28;20035;-79
2023/04/12 10:41:15;;;;;;;7.05;4.10;;;;;;;;;;4953590;28;20032;-81
2023/04/12 10:43:44;;;;;;;6.40;4.20;;;;;;;;;;4954344;28;20039;-79
2023/04/12 10:46:38;;;;;;;5.38;4.22;;;;;;;;;;4955103;28;20103;-81
2023/04/12 10:49:12;;;;;;;6.72;4.10;;;;;;;;;;4957189;28;20525;-79
2023/04/12 10:51:40;;;;;;;6.03;4.45;;;;;;;;;;4955115;28;20043;-80
2023/04/12 10:54:18;;;;;;;4.95;3.47;;;;;;;;;;4954079;28;20027;-82
2023/04/12 10:56:46;;;;;;;5.43;3.53;;;;;;;;;;4955182;28;20035;-82
2023/04/12 10:59:19;;;;;;;5.07;3.60;;;;;;;;;;4980835;28;20050;-84
2023/04/12 11:02:08;;;;;;;5.00;3.45;;;;;;;;;;4954166;28;20108;-77
2023/04/12 11:04:35;;;;;;;6.53;3.80;;;;;;;;;;4954970;28;20569;-79
2023/04/12 11:07:10;;;;;;;6.22;4.18;;;;;;;;;;4954530;28;20110;-78
2023/04/12 11:10:00;;;;;;;4.32;3.38;;;;;;;;;;4944703;29;20042;-81
2023/04/12 11:12:36;;;;;;;6.10;3.50;;;;;;;;;;4938842;29;20039;-82
2023/04/12 11:15:03;;;;;;;4.47;2.80;;;;;;;;;;4980783;28;20076;-84
2023/04/12 11:17:54;;;;;;;4.35;3.03;;;;;;;;;;4967347;28;20066;-83
2023/04/12 11:20:20;;;;;;;5.38;2.85;;;;;;;;;;4954994;28;20054;-85
2023/04/12 11:22:46;;;;;;;5.35;3.20;;;;;;;;;;4952262;29;20031;-84
2023/04/12 11:25:18;;;;;;;3.90;3.13;;;;;;;;;;4957298;28;20038;-85
2023/04/12 11:27:53;;;;;;;3.78;2.72;;;;;;;;;;4951181;28;20032;-84
2023/04/12 11:30:23;;;;;;;5.95;3.60;;;;;;;;;;4935948;29;20126;-83
2023/04/12 11:32:49;;;;;;;4.72;3.47;;;;;;;;;;4935918;29;20040;-84
2023/04/12 11:35:19;;;;;;;5.53;3.38;;;;;;;;;;4970856;28;20042;-83
2023/04/12 11:37:46;;;;;;;6.78;3.55;;;;;;;;;;4955754;28;20027;-85
2023/04/12 11:40:13;;;;;;;5.00;3.25;;;;;;;;;;4953837;28;20019;-84
2023/04/12 11:42:39;;;;;;;5.78;3.00;;;;;;;;;;4952493;28;20041;-83
2023/04/12 11:45:06;;;;;;;5.93;3.55;;;;;;;;;;4950220;28;20094;-84
2023/04/12 11:47:33;;;;;;;7.45;4.10;;;;;;;;;;4948566;28;20047;-84
2023/04/12 11:50:00;;;;;;;4.82;3.25;;;;;;;;;;4948906;28;20410;-84
2023/04/12 11:52:31;;;;;;;4.60;3.08;;;;;;;;;;4950935;28;20039;-84
2023/04/12 11:55:01;;;;;;;7.05;3.65;;;;;;;;;;4951562;28;20049;-82
2023/04/12 11:57:29;;;;;;;8.45;4.03;;;;;;;;;;4951893;28;20504;-83
2023/04/12 11:59:58;;;;;;;5.32;3.20;;;;;;;;;;4954944;28;20058;-83
2023/04/12 12:02:32;;;;;;;5.20;3.33;;;;;;;;;;4957532;28;20043;-81
2023/04/12 12:04:59;;;;;;;7.65;4.38;;;;;;;;;;4958656;28;20039;-83
2023/04/12 12:07:25;;;;;;;4.10;2.85;;;;;;;;;;4965412;29;20104;-79
2023/04/12 12:09:51;;;;;;;6.28;3.50;;;;;;;;;;4982205;28;20054;-79
2023/04/12 12:12:17;;;;;;;4.88;3.42;;;;;;;;;;4956273;28;20385;-79
2023/04/12 12:14:46;;;;;;;5.13;3.10;;;;;;;;;;4953915;28;20046;-80
2023/04/12 12:17:14;;;;;;;6.07;3.47;;;;;;;;;;4971329;28;20023;-79
2023/04/12 12:19:42;;;;;;;6.25;3.95;;;;;;;;;;4955748;28;20042;-81
2023/04/12 12:22:18;;;;;;;6.32;4.28;;;;;;;;;;4950709;29;20046;-85
2023/04/12 12:24:57;;;;;;;5.20;4.00;;;;;;;;;;4984609;28;20035;-80
2023/04/12 12:27:32;;;;;;;4.20;3.25;;;;;;;;;;4960049;28;20065;-80
2023/04/12 12:30:00;;;;;;;3.95;2.67;;;;;;;;;;4958425;28;20047;-83
2023/04/12 12:32:32;;;;;;;8.45;4.30;;;;;;;;;;4959272;29;20342;-80
2023/04/12 12:34:58;;;;;;;4.50;3.50;;;;;;;;;;4965786;28;20056;-82
2023/04/12 12:37:30;;;;;;;6.45;3.72;;;;;;;;;;4956640;28;20066;-83
2023/04/12 12:40:14;;;;;;;4.90;3.28;;;;;;;;;;4958206;28;20097;-79
2023/04/12 12:42:48;;;;;;;4.68;3.38;;;;;;;;;;4979047;28;20062;-80
2023/04/12 12:45:16;;;;;;;5.03;3.00;;;;;;;;;;4952011;28;20187;-81
2023/04/12 12:48:01;;;;;;;6.50;4.53;;;;;;;;;;4956906;28;20494;-81
2023/04/12 12:50:43;;;;;;;5.28;3.55;;;;;;;;;;4958958;28;20039;-78
2023/04/12 12:53:09;;;;;;;6.38;3.70;;;;;;;;;;4955616;28;20043;-82
2023/04/12 12:55:35;;;;;;;5.03;3.67;;;;;;;;;;4957160;29;20034;-81
2023/04/12 13:01:49;;;;;;;5.72;2.90;;;;;;;;;;4957338;28;20038;-83
2023/04/12 13:04:15;;;;;;;4.20;2.83;;;;;;;;;;4959978;29;20043;-80
2023/04/12 13:06:41;;;;;;;6.38;2.72;;;;;;;;;;4985944;28;20024;-85
2023/04/12 13:09:07;;;;;;;4.53;3.25;;;;;;;;;;4964979;28;20098;-82
2023/04/12 13:11:35;;;;;;;4.22;3.03;;;;;;;;;;4961781;28;20031;-82
2023/04/12 13:14:01;;;;;;;4.43;3.17;;;;;;;;;;4957346;28;20039;-84
2023/04/12 13:16:27;;;;;;;4.90;3.30;;;;;;;;;;4959813;29;20035;-83
2023/04/12 13:18:52;;;;;;;4.85;3.38;;;;;;;;;;4961420;28;20492;-78
2023/04/12 13:21:19;;;;;;;5.30;3.95;;;;;;;;;;4960468;28;20577;-80
2023/04/12 13:23:46;;;;;;;6.25;4.68;;;;;;;;;;4959259;28;20118;-81
2023/04/12 13:26:11;;;;;;;7.28;3.72;;;;;;;;;;4958307;28;20031;-79
2023/04/12 13:28:37;;;;;;;7.88;3.67;;;;;;;;;;4958435;28;20035;-80
2023/04/12 13:31:03;;;;;;;4.75;3.15;;;;;;;;;;4958251;28;20505;-79
2023/04/12 13:33:29;;;;;;;5.60;3.10;;;;;;;;;;4986323;28;20119;-82
2023/04/12 13:35:56;;;;;;;5.80;3.25;;;;;;;;;;4993860;28;20063;-81
2023/04/12 13:38:22;;;;;;;4.47;3.17;;;;;;;;;;4960760;28;20046;-80
2023/04/12 13:40:48;;;;;;;4.88;3.22;;;;;;;;;;4976816;28;20034;-81
2023/04/12 13:43:14;;;;;;;6.78;3.40;;;;;;;;;;4956688;28;20043;-79
2023/04/12 13:45:40;;;;;;;11.15;7.50;;;;;;;;;;4960207;28;20035;-81
2023/04/12 13:48:06;;;;;;;6.38;4.10;;;;;;;;;;4957242;29;20470;-77
2023/04/12 13:50:32;;;;;;;6.82;3.55;;;;;;;;;;4958044;28;20054;-82
2023/04/12 13:52:58;;;;;;;7.40;3.88;;;;;;;;;;4960904;28;20509;-79
2023/04/12 13:55:26;;;;;;;5.13;3.38;;;;;;;;;;4963624;28;20031;-81
2023/04/12 13:57:52;;;;;;;4.97;3.60;;;;;;;;;;4964066;28;20082;-80
2023/04/12 14:00:20;;;;;;;8.73;5.13;;;;;;;;;;4963695;28;20058;-80
2023/04/12 14:02:46;;;;;;;4.80;3.30;;;;;;;;;;4964586;29;20095;-83
2023/04/12 14:05:14;;;;;;;4.35;3.03;;;;;;;;;;4991028;28;20034;-80
2023/04/12 14:07:41;;;;;;;5.75;3.38;;;;;;;;;;4965726;28;20107;-79
2023/04/12 14:10:07;;;;;;;4.72;3.65;;;;;;;;;;4971278;28;20027;-80
2023/04/12 14:12:33;;;;;;;6.45;4.00;;;;;;;;;;4965595;28;20039;-79
2023/04/12 14:15:00;;;;;;;4.75;3.28;;;;;;;;;;4968659;28;20110;-80
2023/04/12 14:17:30;;;;;;;6.95;3.70;;;;;;;;;;4994598;28;20035;-80
2023/04/12 14:19:59;;;;;;;5.90;3.38;;;;;;;;;;4967223;29;20059;-79
2023/04/12 14:22:25;;;;;;;5.72;3.20;;;;;;;;;;4966626;28;20027;-79
2023/04/12 14:24:51;;;;;;;6.43;3.17;;;;;;;;;;4963668;28;20066;-80
2023/04/12 14:27:17;;;;;;;5.70;2.83;;;;;;;;;;4947874;29;20035;-83
2023/04/12 14:29:43;;;;;;;4.53;2.80;;;;;;;;;;4963388;28;20067;-81
2023/04/12 14:32:09;;;;;;;5.30;2.63;;;;;;;;;;4963279;28;20023;-81
2023/04/12 14:34:37;;;;;;;6.53;3.00;;;;;;;;;;4961724;28;20079;-80
2023/04/12 14:37:03;;;;;;;4.05;2.70;;;;;;;;;;4960692;28;20034;-82
2023/04/12 14:39:30;;;;;;;4.43;2.75;;;;;;;;;;4966826;28;20031;-81
2023/04/12 14:41:56;;;;;;;5.35;2.75;;;;;;;;;;4960444;28;20031;-80
2023/04/12 14:44:22;;;;;;;3.92;2.70;;;;;;;;;;4960191;28;20150;-80
2023/04/12 14:46:48;;;;;;;4.07;2.90;;;;;;;;;;4956055;28;20482;-80
2023/04/12 14:49:14;;;;;;;3.70;2.67;;;;;;;;;;4992622;28;20141;-80
2023/04/12 14:51:40;;;;;;;6.57;3.50;;;;;;;;;;4989272;28;20540;-79